Time;durP1;ratioP1;P1;durP2;ratioP2;P2;SDS_P1;SDS_P2;PMS_P1;PMS_P2;Temp;Humidity;BMP_temperature;BMP_pressure;BME280_temperature;BME280_humidity;BME280_pressure;Samples;Min_cycle;Max_cycle;Signal;HPM_P1;HPM_P2
2023/03/22 00:00:27;;;;;;;5.18;2.28;;;;;;;;;;5070092;28;20075;-60
2023/03/22 00:02:55;;;;;;;6.45;2.30;;;;;;;;;;5069642;28;20050;-60
2023/03/22 00:05:21;;;;;;;6.72;2.40;;;;;;;;;;5070706;28;20060;-62
2023/03/22 00:07:53;;;;;;;4.68;2.28;;;;;;;;;;5071103;28;20028;-63
2023/03/22 00:10:19;;;;;;;6.57;2.53;;;;;;;;;;5071118;28;20446;-61
2023/03/22 00:12:45;;;;;;;6.70;2.58;;;;;;;;;;5070820;28;20047;-61
2023/03/22 00:15:11;;;;;;;6.88;3.10;;;;;;;;;;5070757;28;20433;-60
2023/03/22 00:17:37;;;;;;;5.70;2.40;;;;;;;;;;5070244;28;20033;-61
2023/03/22 00:20:05;;;;;;;6.40;2.42;;;;;;;;;;5070081;28;20132;-61
2023/03/22 00:22:31;;;;;;;5.85;2.22;;;;;;;;;;5069991;28;20029;-60
2023/03/22 00:24:58;;;;;;;5.55;2.53;;;;;;;;;;5070843;28;20443;-61
2023/03/22 00:27:24;;;;;;;4.68;2.10;;;;;;;;;;5070420;28;20023;-61
2023/03/22 00:29:53;;;;;;;6.65;2.25;;;;;;;;;;5070809;28;20021;-61
2023/03/22 00:32:19;;;;;;;5.65;2.50;;;;;;;;;;5071333;28;20039;-61
2023/03/22 00:34:45;;;;;;;6.18;2.92;;;;;;;;;;5070876;28;20524;-61
2023/03/22 00:37:11;;;;;;;5.00;2.30;;;;;;;;;;5070660;28;20025;-61
2023/03/22 00:39:37;;;;;;;6.47;2.60;;;;;;;;;;5070315;28;20033;-61
2023/03/22 00:42:05;;;;;;;3.67;2.60;;;;;;;;;;5070612;28;20039;-61
2023/03/22 00:44:31;;;;;;;4.68;2.53;;;;;;;;;;5070479;28;20021;-61
2023/03/22 00:46:57;;;;;;;6.57;2.40;;;;;;;;;;5070834;28;20034;-61
2023/03/22 00:49:24;;;;;;;4.53;2.20;;;;;;;;;;5069963;28;20128;-61
2023/03/22 00:51:50;;;;;;;5.82;2.05;;;;;;;;;;5070781;28;20032;-61
2023/03/22 00:54:16;;;;;;;6.22;2.17;;;;;;;;;;5071073;28;20020;-61
2023/03/22 00:56:45;;;;;;;6.10;2.60;;;;;;;;;;5070138;28;20020;-61
2023/03/22 00:59:12;;;;;;;4.05;1.70;;;;;;;;;;5070688;28;20028;-61
2023/03/22 01:01:38;;;;;;;5.45;2.38;;;;;;;;;;5069397;28;20028;-60
2023/03/22 01:04:04;;;;;;;5.20;2.30;;;;;;;;;;5070338;28;20439;-61
2023/03/22 01:06:31;;;;;;;3.83;1.80;;;;;;;;;;5070482;28;20036;-61
2023/03/22 01:08:57;;;;;;;6.03;2.58;;;;;;;;;;5070070;28;20459;-60
2023/03/22 01:11:23;;;;;;;5.25;2.25;;;;;;;;;;5069867;28;20027;-62
2023/03/22 01:13:49;;;;;;;9.52;2.80;;;;;;;;;;5068513;28;20063;-63
2023/03/22 01:16:15;;;;;;;6.90;2.33;;;;;;;;;;5070296;28;20024;-60
2023/03/22 01:18:42;;;;;;;4.93;2.00;;;;;;;;;;5069573;28;20033;-61
2023/03/22 01:21:08;;;;;;;4.63;2.05;;;;;;;;;;5069499;28;20079;-61
2023/03/22 01:23:35;;;;;;;6.95;2.75;;;;;;;;;;5069579;28;20423;-61
2023/03/22 01:26:01;;;;;;;4.70;2.35;;;;;;;;;;5069958;28;20025;-61
2023/03/22 01:28:27;;;;;;;6.30;3.17;;;;;;;;;;5071387;28;20025;-61
2023/03/22 01:30:54;;;;;;;6.38;2.40;;;;;;;;;;5073482;28;20108;-61
2023/03/22 01:33:20;;;;;;;4.05;2.05;;;;;;;;;;5073688;28;20021;-62
2023/03/22 01:35:46;;;;;;;5.65;2.25;;;;;;;;;;5073955;28;20074;-61
2023/03/22 01:38:12;;;;;;;3.83;1.73;;;;;;;;;;5073653;28;20023;-61
2023/03/22 01:40:38;;;;;;;3.60;2.05;;;;;;;;;;5073570;28;20036;-61
2023/03/22 01:43:06;;;;;;;3.30;1.70;;;;;;;;;;5073515;28;20077;-61
2023/03/22 01:45:41;;;;;;;3.92;1.85;;;;;;;;;;5073418;28;20033;-61
2023/03/22 01:48:13;;;;;;;3.47;1.92;;;;;;;;;;5073724;28;20094;-61
2023/03/22 01:50:41;;;;;;;5.03;1.98;;;;;;;;;;5073200;28;20172;-61
2023/03/22 01:53:08;;;;;;;3.53;2.10;;;;;;;;;;5073557;28;20077;-61
2023/03/22 01:55:34;;;;;;;4.28;2.20;;;;;;;;;;5073160;28;20500;-61
2023/03/22 01:58:01;;;;;;;4.78;2.08;;;;;;;;;;5073553;28;20031;-61
2023/03/22 02:00:27;;;;;;;4.50;2.13;;;;;;;;;;5072787;28;20040;-61
2023/03/22 02:02:53;;;;;;;4.85;2.20;;;;;;;;;;5073061;28;20023;-61
2023/03/22 02:05:21;;;;;;;4.32;2.10;;;;;;;;;;5073639;28;20024;-61
2023/03/22 02:07:47;;;;;;;7.35;2.47;;;;;;;;;;5072930;28;20024;-63
2023/03/22 02:10:14;;;;;;;4.32;1.85;;;;;;;;;;5073128;28;20477;-61
2023/03/22 02:12:40;;;;;;;3.85;1.98;;;;;;;;;;5072641;28;20481;-61
2023/03/22 02:15:23;;;;;;;4.70;1.65;;;;;;;;;;5072822;28;20028;-61
2023/03/22 02:18:00;;;;;;;4.72;2.05;;;;;;;;;;5072754;28;20116;-61
2023/03/22 02:20:54;;;;;;;6.38;1.95;;;;;;;;;;5072034;28;20055;-60
2023/03/22 02:23:26;;;;;;;4.30;1.85;;;;;;;;;;5072112;28;20036;-62
2023/03/22 02:25:58;;;;;;;7.55;1.90;;;;;;;;;;5069256;28;20546;-62
2023/03/22 02:28:38;;;;;;;6.03;1.80;;;;;;;;;;5072504;28;20070;-63
2023/03/22 02:31:24;;;;;;;6.50;2.05;;;;;;;;;;5072508;28;20548;-63
2023/03/22 02:34:09;;;;;;;3.85;1.63;;;;;;;;;;5072542;28;20515;-62
2023/03/22 02:36:35;;;;;;;4.18;1.70;;;;;;;;;;5072528;28;20020;-62
2023/03/22 02:39:07;;;;;;;4.55;2.10;;;;;;;;;;5072385;28;20020;-60
2023/03/22 02:41:36;;;;;;;4.97;2.03;;;;;;;;;;5070891;28;20071;-62
2023/03/22 02:44:09;;;;;;;5.05;2.20;;;;;;;;;;5072482;28;20028;-62
2023/03/22 02:46:41;;;;;;;6.38;1.92;;;;;;;;;;5072389;28;20028;-62
2023/03/22 02:49:20;;;;;;;4.18;1.90;;;;;;;;;;5072438;28;20027;-62
2023/03/22 02:51:50;;;;;;;5.78;2.40;;;;;;;;;;5072714;28;20052;-63
2023/03/22 02:54:27;;;;;;;4.40;2.30;;;;;;;;;;5072393;28;20025;-62
2023/03/22 02:57:02;;;;;;;6.05;2.40;;;;;;;;;;5071784;28;20028;-62
2023/03/22 02:59:30;;;;;;;5.70;2.20;;;;;;;;;;5071692;28;20028;-62
2023/03/22 03:01:57;;;;;;;5.35;2.03;;;;;;;;;;5071781;28;20041;-62
2023/03/22 03:04:35;;;;;;;5.50;1.73;;;;;;;;;;5071477;28;20442;-62
2023/03/22 03:07:03;;;;;;;5.82;2.10;;;;;;;;;;5071898;28;20052;-62
2023/03/22 03:09:31;;;;;;;5.93;2.13;;;;;;;;;;5071816;28;20041;-62
2023/03/22 03:11:56;;;;;;;4.60;1.90;;;;;;;;;;5071886;28;20078;-62
2023/03/22 03:14:26;;;;;;;4.97;1.90;;;;;;;;;;5070367;28;20024;-62
2023/03/22 03:17:01;;;;;;;4.22;2.03;;;;;;;;;;5071781;28;20107;-62
2023/03/22 03:19:32;;;;;;;3.93;1.73;;;;;;;;;;5051472;28;20048;-63
2023/03/22 03:22:02;;;;;;;4.70;2.05;;;;;;;;;;5058101;28;20617;-62
2023/03/22 03:24:37;;;;;;;4.43;1.92;;;;;;;;;;5071437;28;20017;-62
2023/03/22 03:27:11;;;;;;;5.57;2.17;;;;;;;;;;5071396;28;20063;-62
2023/03/22 03:29:55;;;;;;;5.97;2.00;;;;;;;;;;5053219;28;20052;-62
2023/03/22 03:32:27;;;;;;;4.82;1.73;;;;;;;;;;5071269;28;20036;-62
2023/03/22 03:35:05;;;;;;;5.63;2.28;;;;;;;;;;5071272;28;20028;-62
2023/03/22 03:37:36;;;;;;;5.10;1.75;;;;;;;;;;5070754;28;20108;-62
2023/03/22 03:40:10;;;;;;;3.90;1.60;;;;;;;;;;5071324;28;20407;-62
2023/03/22 03:42:37;;;;;;;4.25;1.75;;;;;;;;;;5070945;28;20510;-62
2023/03/22 03:45:04;;;;;;;5.35;1.83;;;;;;;;;;5071263;28;20120;-62
2023/03/22 03:47:30;;;;;;;4.75;2.00;;;;;;;;;;5070955;28;20218;-62
2023/03/22 03:49:56;;;;;;;5.38;1.73;;;;;;;;;;5070695;28;20052;-62
2023/03/22 03:52:23;;;;;;;5.15;1.45;;;;;;;;;;5070758;28;20103;-62
2023/03/22 03:54:49;;;;;;;4.07;1.63;;;;;;;;;;5071219;28;20025;-62
2023/03/22 03:57:15;;;;;;;3.85;1.60;;;;;;;;;;5071316;28;20048;-62
2023/03/22 03:59:41;;;;;;;5.28;1.95;;;;;;;;;;5070620;28;20508;-62
2023/03/22 04:02:07;;;;;;;5.50;2.08;;;;;;;;;;5070689;28;20071;-62
2023/03/22 04:04:34;;;;;;;5.80;2.25;;;;;;;;;;5070325;28;20074;-62
2023/03/22 04:07:01;;;;;;;4.80;1.92;;;;;;;;;;5071053;28;20069;-62
2023/03/22 04:09:29;;;;;;;5.47;1.45;;;;;;;;;;5069996;28;20502;-62
2023/03/22 04:11:56;;;;;;;4.28;1.80;;;;;;;;;;5071134;28;20036;-62
2023/03/22 04:14:22;;;;;;;4.60;1.55;;;;;;;;;;5070742;28;20017;-62
2023/03/22 04:16:48;;;;;;;4.65;1.52;;;;;;;;;;5071094;28;20031;-61
2023/03/22 04:19:15;;;;;;;3.33;1.42;;;;;;;;;;5070643;28;20036;-61
2023/03/22 04:21:41;;;;;;;4.30;2.05;;;;;;;;;;5070567;28;20097;-61
2023/03/22 04:24:07;;;;;;;4.13;1.67;;;;;;;;;;5070331;28;20355;-62
2023/03/22 04:26:33;;;;;;;5.32;1.73;;;;;;;;;;5070725;28;20476;-61
2023/03/22 04:29:01;;;;;;;3.25;1.67;;;;;;;;;;5070521;28;20020;-61
2023/03/22 04:31:27;;;;;;;6.38;2.20;;;;;;;;;;5069101;28;20036;-62
2023/03/22 04:33:55;;;;;;;5.15;1.58;;;;;;;;;;5070801;28;20031;-62
2023/03/22 04:36:24;;;;;;;3.45;1.35;;;;;;;;;;5070458;28;20055;-61
2023/03/22 04:38:51;;;;;;;5.63;1.70;;;;;;;;;;5070897;28;20052;-61
2023/03/22 04:41:18;;;;;;;8.00;2.22;;;;;;;;;;5070375;28;20055;-61
2023/03/22 04:43:45;;;;;;;4.50;1.63;;;;;;;;;;5050611;28;20104;-61
2023/03/22 04:46:12;;;;;;;3.65;1.42;;;;;;;;;;5050754;28;20417;-62
2023/03/22 04:48:40;;;;;;;4.03;1.63;;;;;;;;;;5062496;28;20021;-61
2023/03/22 04:51:06;;;;;;;4.75;1.48;;;;;;;;;;5070185;28;20032;-61
2023/03/22 04:53:37;;;;;;;4.78;1.38;;;;;;;;;;5069628;28;20028;-61
2023/03/22 04:56:05;;;;;;;4.68;1.40;;;;;;;;;;5070301;28;20384;-61
2023/03/22 04:58:31;;;;;;;6.60;1.98;;;;;;;;;;5070426;28;20020;-61
2023/03/22 05:00:57;;;;;;;5.60;1.60;;;;;;;;;;5067950;28;20404;-62
2023/03/22 05:03:23;;;;;;;4.78;1.60;;;;;;;;;;5072369;28;20036;-62
2023/03/22 05:05:52;;;;;;;5.30;1.95;;;;;;;;;;5074285;28;20062;-61
2023/03/22 05:08:19;;;;;;;6.68;1.50;;;;;;;;;;5074323;28;20060;-62
2023/03/22 05:10:45;;;;;;;5.97;2.05;;;;;;;;;;5073891;28;20028;-61
2023/03/22 05:13:11;;;;;;;5.15;1.55;;;;;;;;;;5072250;28;20031;-61
2023/03/22 05:15:41;;;;;;;5.35;1.60;;;;;;;;;;5073931;28;20036;-61
2023/03/22 05:18:07;;;;;;;4.45;1.52;;;;;;;;;;5073476;28;20076;-61
2023/03/22 05:20:33;;;;;;;4.72;1.40;;;;;;;;;;5073189;28;20128;-61
2023/03/22 05:23:01;;;;;;;4.13;1.80;;;;;;;;;;5073645;28;20043;-61
2023/03/22 05:25:27;;;;;;;5.53;1.60;;;;;;;;;;5073181;28;20396;-61
2023/03/22 05:27:53;;;;;;;3.58;1.50;;;;;;;;;;5053794;28;20029;-61
2023/03/22 05:30:20;;;;;;;5.90;1.55;;;;;;;;;;5058658;28;20060;-61
2023/03/22 05:32:46;;;;;;;4.35;1.75;;;;;;;;;;5073790;28;20508;-61
2023/03/22 05:35:12;;;;;;;4.22;1.27;;;;;;;;;;5073022;28;20525;-62
2023/03/22 05:37:39;;;;;;;5.47;1.65;;;;;;;;;;5073243;28;20021;-61
2023/03/22 05:40:08;;;;;;;4.25;1.33;;;;;;;;;;5073136;28;20056;-61
2023/03/22 05:42:35;;;;;;;3.47;1.27;;;;;;;;;;5072873;28;20072;-61
2023/03/22 05:45:01;;;;;;;4.50;1.38;;;;;;;;;;5072829;28;20062;-60
2023/03/22 05:47:27;;;;;;;5.18;1.55;;;;;;;;;;5072901;28;20082;-62
2023/03/22 05:49:53;;;;;;;4.82;1.38;;;;;;;;;;5073038;28;20052;-61
2023/03/22 05:52:19;;;;;;;4.10;1.50;;;;;;;;;;5073336;28;20056;-60
2023/03/22 05:54:45;;;;;;;3.83;1.40;;;;;;;;;;5073293;28;20016;-62
2023/03/22 05:57:11;;;;;;;6.00;1.60;;;;;;;;;;5073295;28;20489;-61
2023/03/22 05:59:37;;;;;;;5.47;1.40;;;;;;;;;;5072554;28;20029;-61
2023/03/22 06:02:03;;;;;;;5.13;1.80;;;;;;;;;;5072590;28;20040;-61
2023/03/22 06:04:29;;;;;;;5.55;1.63;;;;;;;;;;5072852;28;20024;-61
2023/03/22 06:06:55;;;;;;;3.63;1.45;;;;;;;;;;5072923;28;20032;-61
2023/03/22 06:09:21;;;;;;;5.07;1.45;;;;;;;;;;5072611;28;20488;-60
2023/03/22 06:11:47;;;;;;;4.82;1.20;;;;;;;;;;5072010;28;20031;-61
2023/03/22 06:14:13;;;;;;;4.95;1.70;;;;;;;;;;5072416;28;20485;-61
2023/03/22 06:16:39;;;;;;;6.55;1.80;;;;;;;;;;5071573;28;20043;-61
2023/03/22 06:19:05;;;;;;;5.50;1.60;;;;;;;;;;5072650;28;20451;-61
2023/03/22 06:21:31;;;;;;;5.93;1.55;;;;;;;;;;5072024;28;20036;-63
2023/03/22 06:23:57;;;;;;;5.55;1.60;;;;;;;;;;5073151;28;20040;-61
2023/03/22 06:26:23;;;;;;;3.42;1.33;;;;;;;;;;5072834;28;20107;-61
2023/03/22 06:28:49;;;;;;;5.53;1.83;;;;;;;;;;5072964;28;20112;-60
2023/03/22 06:31:15;;;;;;;7.65;1.33;;;;;;;;;;5073025;28;20034;-60
2023/03/22 06:33:41;;;;;;;5.03;1.48;;;;;;;;;;5071785;28;20447;-60
2023/03/22 06:36:07;;;;;;;5.18;1.23;;;;;;;;;;5072679;28;20074;-62
2023/03/22 06:38:33;;;;;;;4.57;1.42;;;;;;;;;;5072307;28;20021;-60
2023/03/22 06:40:59;;;;;;;6.63;1.60;;;;;;;;;;5072599;28;20534;-61
2023/03/22 06:43:25;;;;;;;3.55;1.10;;;;;;;;;;5072022;28;20029;-61
2023/03/22 06:45:51;;;;;;;8.00;2.10;;;;;;;;;;5072067;28;20028;-61
2023/03/22 06:48:17;;;;;;;5.45;1.35;;;;;;;;;;5072880;28;20067;-61
2023/03/22 06:50:44;;;;;;;6.20;1.55;;;;;;;;;;5072412;28;20038;-61
2023/03/22 06:53:10;;;;;;;2.65;0.98;;;;;;;;;;5072495;28;20056;-60
2023/03/22 06:55:36;;;;;;;3.78;1.60;;;;;;;;;;5072228;28;20052;-60
2023/03/22 06:58:03;;;;;;;8.00;1.85;;;;;;;;;;5070063;28;20021;-61
2023/03/22 07:00:30;;;;;;;3.85;1.40;;;;;;;;;;5071667;28;20044;-61
2023/03/22 07:02:58;;;;;;;5.10;1.48;;;;;;;;;;5072487;28;20025;-61
2023/03/22 07:05:24;;;;;;;6.05;1.58;;;;;;;;;;5071746;28;20106;-63
2023/03/22 07:07:50;;;;;;;4.07;1.20;;;;;;;;;;5072113;28;20025;-60
2023/03/22 07:10:16;;;;;;;4.65;1.23;;;;;;;;;;5072561;28;20028;-60
2023/03/22 07:12:42;;;;;;;4.53;1.55;;;;;;;;;;5071910;28;20116;-62
2023/03/22 07:15:08;;;;;;;6.10;1.65;;;;;;;;;;5071681;28;20095;-62
2023/03/22 07:17:34;;;;;;;7.50;2.35;;;;;;;;;;5071856;28;20024;-63
2023/03/22 07:20:01;;;;;;;8.85;1.63;;;;;;;;;;5071685;28;20029;-62
2023/03/22 07:22:27;;;;;;;6.00;1.80;;;;;;;;;;5071207;28;20035;-62
2023/03/22 07:24:53;;;;;;;7.93;2.25;;;;;;;;;;5071148;28;20078;-62
2023/03/22 07:27:19;;;;;;;6.32;1.58;;;;;;;;;;5072138;28;20024;-60
2023/03/22 07:29:45;;;;;;;13.02;2.25;;;;;;;;;;5071547;28;20079;-60
2023/03/22 07:32:11;;;;;;;10.10;2.15;;;;;;;;;;5071139;28;20036;-61
2023/03/22 07:34:37;;;;;;;10.73;1.80;;;;;;;;;;5071470;28;20130;-61
2023/03/22 07:37:03;;;;;;;9.02;1.52;;;;;;;;;;5071680;28;20029;-61
2023/03/22 07:39:30;;;;;;;6.53;1.50;;;;;;;;;;5070988;28;20551;-60
2023/03/22 07:41:56;;;;;;;9.50;2.10;;;;;;;;;;5069620;28;20529;-61
2023/03/22 07:44:22;;;;;;;8.45;1.60;;;;;;;;;;5070162;28;20048;-59
2023/03/22 07:46:50;;;;;;;9.48;1.88;;;;;;;;;;5071134;28;20381;-60
2023/03/22 07:49:16;;;;;;;8.98;1.90;;;;;;;;;;5071742;28;20025;-60
2023/03/22 07:51:42;;;;;;;10.80;2.58;;;;;;;;;;5070921;28;20021;-60
2023/03/22 07:54:08;;;;;;;9.95;2.58;;;;;;;;;;5071356;28;20077;-60
2023/03/22 07:56:34;;;;;;;11.35;2.05;;;;;;;;;;5071187;28;20028;-60
2023/03/22 07:59:00;;;;;;;5.82;1.33;;;;;;;;;;5069582;28;20375;-60
2023/03/22 08:01:26;;;;;;;6.65;1.55;;;;;;;;;;5069471;28;20492;-60
2023/03/22 08:03:52;;;;;;;7.00;1.88;;;;;;;;;;5069449;28;20515;-60
2023/03/22 08:06:20;;;;;;;9.00;2.38;;;;;;;;;;5071469;28;20141;-60
2023/03/22 08:08:46;;;;;;;9.98;1.55;;;;;;;;;;5070244;28;20028;-62
2023/03/22 08:11:13;;;;;;;10.63;1.55;;;;;;;;;;5071205;28;20028;-60
2023/03/22 08:13:39;;;;;;;8.45;1.70;;;;;;;;;;5071077;28;20048;-61
2023/03/22 08:16:05;;;;;;;14.77;2.13;;;;;;;;;;5068867;28;20020;-61
2023/03/22 08:18:31;;;;;;;6.95;2.20;;;;;;;;;;5069655;28;20082;-61
2023/03/22 08:20:58;;;;;;;5.90;2.00;;;;;;;;;;5069583;28;20040;-60
2023/03/22 08:23:25;;;;;;;6.43;1.55;;;;;;;;;;5070263;28;20021;-60
2023/03/22 08:25:51;;;;;;;10.15;1.83;;;;;;;;;;5071095;28;20032;-59
2023/03/22 08:28:18;;;;;;;7.55;1.48;;;;;;;;;;5070257;28;20492;-60
2023/03/22 08:30:45;;;;;;;6.95;1.80;;;;;;;;;;5069535;28;20135;-59
2023/03/22 08:33:12;;;;;;;7.90;1.67;;;;;;;;;;5070986;28;20031;-60
2023/03/22 08:35:38;;;;;;;8.05;1.58;;;;;;;;;;5070738;28;20546;-60
2023/03/22 08:38:04;;;;;;;7.68;1.83;;;;;;;;;;5074895;28;20110;-60
2023/03/22 08:40:30;;;;;;;8.15;1.90;;;;;;;;;;5074634;28;20040;-60
2023/03/22 08:42:57;;;;;;;8.80;3.10;;;;;;;;;;5075005;28;20028;-60
2023/03/22 08:45:23;;;;;;;10.73;3.20;;;;;;;;;;5074116;28;20043;-59
2023/03/22 08:47:49;;;;;;;10.10;4.00;;;;;;;;;;5075099;28;20092;-61
2023/03/22 08:50:15;;;;;;;10.60;3.72;;;;;;;;;;5075168;28;20024;-61
2023/03/22 08:52:41;;;;;;;12.55;4.22;;;;;;;;;;5074471;28;20086;-61
2023/03/22 08:55:08;;;;;;;12.02;4.47;;;;;;;;;;5074825;28;20643;-60
2023/03/22 08:57:34;;;;;;;13.55;4.68;;;;;;;;;;5074574;28;20492;-59
2023/03/22 09:00:00;;;;;;;12.80;4.32;;;;;;;;;;5072359;28;20569;-60
2023/03/22 09:02:27;;;;;;;10.65;5.18;;;;;;;;;;5073627;28;20556;-61
2023/03/22 09:04:53;;;;;;;13.70;4.85;;;;;;;;;;5074696;28;20108;-61
2023/03/22 09:07:20;;;;;;;12.15;4.82;;;;;;;;;;5074537;28;20021;-60
2023/03/22 09:09:46;;;;;;;11.00;5.63;;;;;;;;;;5074827;28;20035;-60
2023/03/22 09:12:12;;;;;;;14.00;5.25;;;;;;;;;;5074468;28;20021;-60
2023/03/22 09:14:38;;;;;;;10.68;4.88;;;;;;;;;;5074157;28;20021;-62
2023/03/22 09:17:04;;;;;;;15.15;5.15;;;;;;;;;;5072522;28;20025;-60
2023/03/22 09:19:31;;;;;;;10.30;5.00;;;;;;;;;;5073941;28;20543;-60
2023/03/22 09:21:57;;;;;;;12.02;4.70;;;;;;;;;;5073857;28;20079;-60
2023/03/22 09:24:23;;;;;;;10.48;5.28;;;;;;;;;;5074049;28;20020;-61
2023/03/22 09:26:50;;;;;;;13.02;5.38;;;;;;;;;;5074353;28;20493;-61
2023/03/22 09:29:16;;;;;;;12.35;4.93;;;;;;;;;;5074435;28;20107;-61
2023/03/22 09:31:43;;;;;;;12.80;4.82;;;;;;;;;;5073783;28;20078;-60
2023/03/22 09:34:09;;;;;;;11.77;4.50;;;;;;;;;;5074039;28;20115;-61
2023/03/22 09:36:36;;;;;;;11.95;4.28;;;;;;;;;;5073169;28;20404;-61
2023/03/22 09:39:05;;;;;;;14.43;5.22;;;;;;;;;;5074098;28;20082;-62
2023/03/22 09:41:44;;;;;;;13.00;4.93;;;;;;;;;;5073696;28;20045;-62
2023/03/22 09:44:15;;;;;;;9.95;4.80;;;;;;;;;;5073865;28;20024;-60
2023/03/22 09:46:44;;;;;;;11.30;4.10;;;;;;;;;;5073486;28;20429;-60
2023/03/22 09:49:13;;;;;;;10.93;4.32;;;;;;;;;;5073043;28;20028;-61
2023/03/22 09:51:40;;;;;;;10.68;4.25;;;;;;;;;;5072937;28;20661;-62
2023/03/22 09:54:18;;;;;;;12.20;4.60;;;;;;;;;;5073763;28;20044;-61
2023/03/22 09:56:55;;;;;;;10.00;3.83;;;;;;;;;;5073826;28;20103;-61
2023/03/22 09:59:25;;;;;;;8.75;3.95;;;;;;;;;;5072554;28;20541;-62
2023/03/22 10:02:03;;;;;;;7.35;3.25;;;;;;;;;;5073347;28;20040;-61
2023/03/22 10:04:35;;;;;;;10.25;4.13;;;;;;;;;;5073195;28;20039;-61
2023/03/22 10:07:20;;;;;;;7.82;3.47;;;;;;;;;;5072919;28;20020;-61
2023/03/22 10:09:57;;;;;;;8.73;3.67;;;;;;;;;;5073482;28;20024;-62
2023/03/22 10:12:23;;;;;;;8.48;3.33;;;;;;;;;;5073259;28;20028;-61
2023/03/22 10:14:51;;;;;;;10.27;3.58;;;;;;;;;;5073236;28;20025;-62
2023/03/22 10:17:23;;;;;;;9.68;3.70;;;;;;;;;;5072426;28;20032;-62
2023/03/22 10:19:55;;;;;;;7.18;3.13;;;;;;;;;;5073042;28;20089;-62
2023/03/22 10:22:29;;;;;;;7.90;3.55;;;;;;;;;;5072814;28;20056;-61
2023/03/22 10:24:55;;;;;;;7.55;2.97;;;;;;;;;;5073069;28;20024;-62
2023/03/22 10:27:22;;;;;;;9.95;3.80;;;;;;;;;;5072721;28;20054;-61
2023/03/22 10:29:53;;;;;;;9.38;3.20;;;;;;;;;;5073355;28;20024;-62
2023/03/22 10:32:21;;;;;;;5.82;2.55;;;;;;;;;;5072425;28;20039;-62
2023/03/22 10:34:48;;;;;;;7.97;3.28;;;;;;;;;;5071405;28;20021;-61
2023/03/22 10:37:19;;;;;;;8.63;3.20;;;;;;;;;;5070031;28;20103;-63
2023/03/22 10:39:48;;;;;;;8.15;2.53;;;;;;;;;;5071375;28;20105;-62
2023/03/22 10:42:19;;;;;;;9.50;3.88;;;;;;;;;;5071504;28;20036;-61
2023/03/22 10:44:50;;;;;;;8.20;2.30;;;;;;;;;;5070733;28;20433;-64
2023/03/22 10:47:17;;;;;;;7.00;2.70;;;;;;;;;;5072796;28;20104;-64
2023/03/22 10:49:47;;;;;;;8.10;2.47;;;;;;;;;;5072433;28;20021;-64
2023/03/22 10:52:22;;;;;;;8.75;2.88;;;;;;;;;;5072618;28;20024;-62
2023/03/22 10:54:48;;;;;;;7.43;3.00;;;;;;;;;;5072767;28;20105;-68
2023/03/22 10:57:14;;;;;;;7.13;3.25;;;;;;;;;;5072135;28;20059;-64
2023/03/22 10:59:50;;;;;;;5.43;2.20;;;;;;;;;;5070862;28;20036;-66
2023/03/22 11:02:32;;;;;;;8.35;2.97;;;;;;;;;;5072394;28;20039;-70
2023/03/22 11:04:59;;;;;;;6.10;2.55;;;;;;;;;;5072020;28;20032;-60
2023/03/22 11:07:45;;;;;;;8.43;2.75;;;;;;;;;;5072026;28;20030;-65
2023/03/22 11:10:13;;;;;;;6.47;2.33;;;;;;;;;;5072045;28;20505;-64
2023/03/22 11:12:41;;;;;;;6.05;2.55;;;;;;;;;;5071747;28;20324;-67
2023/03/22 11:15:18;;;;;;;7.07;2.60;;;;;;;;;;5071972;28;20504;-63
2023/03/22 11:17:45;;;;;;;5.95;2.63;;;;;;;;;;5072182;28;20021;-61
2023/03/22 11:20:15;;;;;;;5.00;1.83;;;;;;;;;;5071587;28;20048;-60
2023/03/22 11:22:42;;;;;;;5.63;2.20;;;;;;;;;;5071032;28;20396;-60
2023/03/22 11:25:16;;;;;;;4.35;1.90;;;;;;;;;;5071302;28;20040;-62
2023/03/22 11:27:53;;;;;;;4.82;1.45;;;;;;;;;;5070701;28;20046;-61
2023/03/22 11:30:22;;;;;;;6.05;1.70;;;;;;;;;;5071574;28;20029;-61
2023/03/22 11:32:48;;;;;;;5.25;1.73;;;;;;;;;;5071696;28;20081;-61
2023/03/22 11:35:26;;;;;;;5.60;1.50;;;;;;;;;;5070951;28;20048;-69
2023/03/22 11:37:53;;;;;;;7.47;1.92;;;;;;;;;;5071611;28;20024;-65
2023/03/22 11:40:22;;;;;;;6.85;2.17;;;;;;;;;;5070589;28;20083;-65
2023/03/22 11:42:49;;;;;;;5.72;1.67;;;;;;;;;;5071320;28;20039;-72
2023/03/22 11:45:18;;;;;;;6.25;1.85;;;;;;;;;;5051912;28;20025;-66
2023/03/22 11:47:44;;;;;;;5.75;1.80;;;;;;;;;;5051204;28;20033;-70
2023/03/22 11:50:25;;;;;;;4.55;1.85;;;;;;;;;;5051455;28;20032;-70
2023/03/22 11:52:52;;;;;;;6.55;2.30;;;;;;;;;;5059429;28;20099;-66
2023/03/22 11:55:19;;;;;;;6.35;2.00;;;;;;;;;;5071089;28;20033;-62
2023/03/22 11:57:46;;;;;;;4.10;1.92;;;;;;;;;;5075763;28;20834;-66
2023/03/22 12:00:18;;;;;;;4.45;2.20;;;;;;;;;;5068238;28;20119;-69
2023/03/22 12:03:08;;;;;;;5.25;2.10;;;;;;;;;;5070114;28;20054;-63
2023/03/22 12:05:36;;;;;;;6.10;2.13;;;;;;;;;;5065340;28;20033;-65
2023/03/22 12:08:11;;;;;;;4.45;2.10;;;;;;;;;;5066974;28;20028;-63
2023/03/22 12:10:41;;;;;;;4.40;1.80;;;;;;;;;;5069088;28;20114;-63
2023/03/22 12:13:28;;;;;;;6.47;2.10;;;;;;;;;;5068138;28;20492;-67
2023/03/22 12:15:53;;;;;;;;;;;;;;;;;;5068678;28;20063;-67
2023/03/22 12:18:28;;;;;;;5.20;2.05;;;;;;;;;;5068421;28;19908;-63
2023/03/22 12:20:56;;;;;;;5.78;1.83;;;;;;;;;;5069232;28;20048;-65
2023/03/22 12:23:25;;;;;;;8.48;2.20;;;;;;;;;;5070118;28;20037;-62
2023/03/22 12:25:51;;;;;;;5.82;1.88;;;;;;;;;;5069360;28;20489;-67
2023/03/22 12:28:19;;;;;;;4.97;1.80;;;;;;;;;;5069477;28;20481;-67
2023/03/22 12:30:47;;;;;;;5.30;2.47;;;;;;;;;;5068550;28;20016;-63
2023/03/22 12:33:28;;;;;;;5.28;1.77;;;;;;;;;;5068926;28;20021;-61
2023/03/22 12:35:59;;;;;;;3.28;1.58;;;;;;;;;;5066517;28;20111;-64
2023/03/22 12:38:35;;;;;;;5.00;2.05;;;;;;;;;;5069027;28;20017;-63
2023/03/22 12:41:02;;;;;;;6.30;1.95;;;;;;;;;;5066960;28;20032;-61
2023/03/22 12:43:35;;;;;;;5.53;1.75;;;;;;;;;;5068947;28;20059;-61
2023/03/22 12:46:03;;;;;;;4.90;2.08;;;;;;;;;;5069531;28;20451;-62
2023/03/22 12:48:29;;;;;;;6.78;1.83;;;;;;;;;;5069850;28;20031;-68
2023/03/22 12:50:56;;;;;;;6.32;2.30;;;;;;;;;;5069157;28;20536;-67
2023/03/22 12:53:25;;;;;;;3.45;1.50;;;;;;;;;;5068997;28;20021;-69
2023/03/22 12:55:52;;;;;;;5.25;1.92;;;;;;;;;;5070054;28;20025;-65
2023/03/22 12:58:20;;;;;;;5.45;2.00;;;;;;;;;;5070868;28;20429;-70
2023/03/22 13:00:46;;;;;;;6.03;2.10;;;;;;;;;;5069833;28;20040;-65
2023/03/22 13:03:15;;;;;;;4.28;2.00;;;;;;;;;;5069632;28;20043;-69
2023/03/22 13:05:41;;;;;;;5.22;2.00;;;;;;;;;;5070577;28;20477;-69
2023/03/22 13:08:07;;;;;;;8.43;2.03;;;;;;;;;;5070679;28;20409;-69
2023/03/22 13:10:35;;;;;;;5.70;2.28;;;;;;;;;;5070313;28;20029;-64
2023/03/22 13:13:13;;;;;;;5.22;2.20;;;;;;;;;;5069691;28;20077;-61
2023/03/22 13:15:55;;;;;;;5.93;1.88;;;;;;;;;;5070483;28;20071;-64
2023/03/22 13:18:31;;;;;;;5.80;2.03;;;;;;;;;;5070308;28;20021;-67
2023/03/22 13:20:57;;;;;;;;;;;;;;;;;;5070853;28;20055;-62
2023/03/22 13:23:26;;;;;;;4.68;2.10;;;;;;;;;;5071347;28;20378;-69
2023/03/22 13:25:58;;;;;;;3.90;1.70;;;;;;;;;;5073890;28;20418;-71
2023/03/22 13:28:25;;;;;;;6.40;1.88;;;;;;;;;;5074067;28;20021;-62
2023/03/22 13:30:53;;;;;;;5.63;1.70;;;;;;;;;;5074248;28;20069;-61
2023/03/22 13:33:24;;;;;;;5.55;1.75;;;;;;;;;;5074471;28;20088;-65
2023/03/22 13:35:53;;;;;;;3.70;1.95;;;;;;;;;;5073976;28;20035;-68
2023/03/22 13:38:20;;;;;;;3.95;1.60;;;;;;;;;;5072927;28;20017;-62
2023/03/22 13:40:49;;;;;;;2.90;1.55;;;;;;;;;;5074273;28;20033;-61
2023/03/22 13:43:27;;;;;;;5.78;2.03;;;;;;;;;;5074232;28;20021;-62
2023/03/22 13:46:09;;;;;;;5.43;1.58;;;;;;;;;;5073936;28;20469;-68
2023/03/22 13:48:41;;;;;;;3.30;1.50;;;;;;;;;;5073599;28;20427;-68
2023/03/22 13:51:12;;;;;;;5.38;1.60;;;;;;;;;;5073815;28;20021;-63
2023/03/22 13:53:42;;;;;;;4.90;1.92;;;;;;;;;;5073116;28;20051;-69
2023/03/22 13:56:11;;;;;;;3.78;1.50;;;;;;;;;;5073371;28;20032;-69
2023/03/22 13:58:49;;;;;;;3.38;1.45;;;;;;;;;;5073496;28;20024;-66
2023/03/22 14:01:21;;;;;;;3.78;1.52;;;;;;;;;;5073768;28;20117;-63
2023/03/22 14:03:49;;;;;;;3.95;1.60;;;;;;;;;;5073969;28;20401;-61
2023/03/22 14:06:21;;;;;;;4.43;1.88;;;;;;;;;;5074006;28;20068;-66
2023/03/22 14:08:50;;;;;;;3.90;1.73;;;;;;;;;;5072937;28;20028;-62
2023/03/22 14:11:22;;;;;;;4.43;1.98;;;;;;;;;;5073605;28;20327;-63
2023/03/22 14:13:54;;;;;;;5.82;1.67;;;;;;;;;;5073739;28;20060;-62
2023/03/22 14:16:27;;;;;;;3.97;1.60;;;;;;;;;;5071962;28;20055;-61
2023/03/22 14:18:53;;;;;;;6.03;1.83;;;;;;;;;;5073245;28;20107;-67
2023/03/22 14:21:22;;;;;;;3.50;1.50;;;;;;;;;;5072946;28;20512;-61
2023/03/22 14:23:51;;;;;;;3.03;1.30;;;;;;;;;;5073393;28;20024;-66
2023/03/22 14:26:19;;;;;;;2.72;1.15;;;;;;;;;;5073296;28;20493;-61
2023/03/22 14:28:45;;;;;;;5.75;1.80;;;;;;;;;;5073439;28;20016;-70
2023/03/22 14:31:30;;;;;;;5.65;2.22;;;;;;;;;;5073038;28;20392;-62
2023/03/22 14:34:00;;;;;;;5.32;1.60;;;;;;;;;;5070510;28;20436;-63
2023/03/22 14:36:28;;;;;;;3.22;1.63;;;;;;;;;;5071815;28;20028;-61
2023/03/22 14:38:56;;;;;;;7.15;1.70;;;;;;;;;;5073040;28;20025;-67
2023/03/22 14:41:23;;;;;;;4.85;1.50;;;;;;;;;;5072015;28;20075;-66
2023/03/22 14:43:50;;;;;;;3.70;1.55;;;;;;;;;;5072248;28;20062;-61
2023/03/22 14:46:24;;;;;;;4.68;1.77;;;;;;;;;;5077620;28;20104;-64
2023/03/22 14:48:54;;;;;;;4.07;1.60;;;;;;;;;;5092783;28;20507;-68
2023/03/22 14:51:23;;;;;;;6.00;2.13;;;;;;;;;;5075422;28;20032;-65